Time;durP1;ratioP1;P1;durP2;ratioP2;P2;SDS_P1;SDS_P2;PMS_P1;PMS_P2;Temp;Humidity;BMP_temperature;BMP_pressure;BME280_temperature;BME280_humidity;BME280_pressure;Samples;Min_cycle;Max_cycle;Signal;HPM_P1;HPM_P2
2023/08/02 00:00:27;;;;;;;19.37;5.57;;;;;;;;;;5053493;28;20044;-69
2023/08/02 00:02:53;;;;;;;13.32;4.18;;;;;;;;;;5071935;28;20044;-67
2023/08/02 00:05:18;;;;;;;10.23;4.13;;;;;;;;;;5073319;28;20012;-67
2023/08/02 00:07:43;;;;;;;10.90;4.55;;;;;;;;;;5070621;28;20064;-67
2023/08/02 00:10:08;;;;;;;11.10;4.17;;;;;;;;;;5073294;28;20379;-67
2023/08/02 00:12:33;;;;;;;17.58;5.88;;;;;;;;;;5070754;28;20081;-69
2023/08/02 00:14:59;;;;;;;6.27;4.17;;;;;;;;;;5073037;28;20388;-69
2023/08/02 00:17:24;;;;;;;11.45;4.50;;;;;;;;;;5071663;28;20162;-67
2023/08/02 00:19:49;;;;;;;15.30;5.35;;;;;;;;;;5073050;28;20031;-68
2023/08/02 00:22:14;;;;;;;13.45;5.95;;;;;;;;;;5071516;28;20056;-68
2023/08/02 00:24:39;;;;;;;24.63;6.83;;;;;;;;;;5073413;28;20013;-69
2023/08/02 00:27:04;;;;;;;19.63;6.47;;;;;;;;;;5071606;28;20495;-69
2023/08/02 00:29:29;;;;;;;8.43;4.80;;;;;;;;;;5072670;28;20032;-68
2023/08/02 00:31:55;;;;;;;9.95;5.32;;;;;;;;;;5071392;28;20070;-70
2023/08/02 00:34:20;;;;;;;10.03;4.93;;;;;;;;;;5072977;28;20035;-69
2023/08/02 00:36:45;;;;;;;20.77;8.10;;;;;;;;;;5071362;28;20106;-69
2023/08/02 00:39:10;;;;;;;21.47;5.43;;;;;;;;;;5072880;28;20031;-69
2023/08/02 00:41:35;;;;;;;13.77;5.32;;;;;;;;;;5071557;28;20063;-69
2023/08/02 00:44:00;;;;;;;14.40;6.30;;;;;;;;;;5070543;28;20013;-69
2023/08/02 00:46:26;;;;;;;12.67;6.27;;;;;;;;;;5071082;28;20024;-69
2023/08/02 00:48:51;;;;;;;15.90;6.40;;;;;;;;;;5072916;28;20036;-69
2023/08/02 00:51:18;;;;;;;14.00;6.10;;;;;;;;;;5070930;28;20033;-69
2023/08/02 00:53:43;;;;;;;19.52;8.40;;;;;;;;;;5072719;28;20091;-69
2023/08/02 00:56:09;;;;;;;9.70;5.07;;;;;;;;;;5071081;28;20174;-70
2023/08/02 00:58:34;;;;;;;10.65;6.20;;;;;;;;;;5071914;28;20020;-70
2023/08/02 01:01:07;;;;;;;17.20;6.77;;;;;;;;;;5070981;28;20078;-70
2023/08/02 01:03:36;;;;;;;12.98;6.30;;;;;;;;;;5070435;28;20017;-70
2023/08/02 01:06:06;;;;;;;12.43;6.20;;;;;;;;;;5070595;28;20016;-70
2023/08/02 01:08:34;;;;;;;21.25;6.60;;;;;;;;;;5072534;28;20112;-70
2023/08/02 01:11:11;;;;;;;20.40;10.70;;;;;;;;;;5069443;28;20025;-70
2023/08/02 01:13:39;;;;;;;10.83;5.73;;;;;;;;;;5072061;28;20020;-69
2023/08/02 01:16:05;;;;;;;19.40;8.25;;;;;;;;;;5070791;28;20533;-70
2023/08/02 01:18:30;;;;;;;23.63;7.78;;;;;;;;;;5072189;28;20017;-70
2023/08/02 01:20:55;;;;;;;20.58;7.70;;;;;;;;;;5069696;28;20016;-70
2023/08/02 01:23:20;;;;;;;24.13;8.57;;;;;;;;;;5072241;28;20031;-69
2023/08/02 01:25:46;;;;;;;19.73;8.75;;;;;;;;;;5070290;28;20023;-70
2023/08/02 01:28:16;;;;;;;12.95;6.15;;;;;;;;;;5071720;28;20794;-70
2023/08/02 01:30:41;;;;;;;18.77;8.93;;;;;;;;;;5072235;28;20593;-70
2023/08/02 01:33:07;;;;;;;14.02;7.25;;;;;;;;;;5070489;28;20048;-68
2023/08/02 01:35:33;;;;;;;12.07;5.70;;;;;;;;;;5071057;28;20369;-68
2023/08/02 01:37:58;;;;;;;9.30;5.20;;;;;;;;;;5070416;28;20040;-68
2023/08/02 01:40:23;;;;;;;13.07;6.18;;;;;;;;;;5071848;28;20023;-68
2023/08/02 01:42:49;;;;;;;16.90;5.40;;;;;;;;;;5070039;28;20724;-70
2023/08/02 01:45:14;;;;;;;16.13;6.13;;;;;;;;;;5071337;28;20443;-69
2023/08/02 01:47:39;;;;;;;12.00;7.00;;;;;;;;;;5069021;28;20439;-70
2023/08/02 01:50:04;;;;;;;12.57;7.80;;;;;;;;;;5071166;28;20565;-68
2023/08/02 01:52:30;;;;;;;11.23;6.78;;;;;;;;;;5067586;28;20473;-68
2023/08/02 01:54:55;;;;;;;19.42;7.78;;;;;;;;;;5070349;28;20033;-68
2023/08/02 01:57:20;;;;;;;15.90;8.10;;;;;;;;;;5069591;28;20037;-69
2023/08/02 01:59:45;;;;;;;18.77;7.85;;;;;;;;;;5071111;28;20052;-71
2023/08/02 02:02:10;;;;;;;13.10;5.45;;;;;;;;;;5068275;28;20032;-70
2023/08/02 02:04:36;;;;;;;11.52;7.65;;;;;;;;;;5071259;28;20028;-70
2023/08/02 02:07:01;;;;;;;11.50;6.17;;;;;;;;;;5069249;28;20028;-70
2023/08/02 02:09:26;;;;;;;13.00;6.78;;;;;;;;;;5071136;28;20423;-70
2023/08/02 02:11:51;;;;;;;14.63;7.20;;;;;;;;;;5069969;28;20522;-70
2023/08/02 02:14:16;;;;;;;13.27;6.10;;;;;;;;;;5070266;28;20020;-70
2023/08/02 02:16:42;;;;;;;12.33;5.87;;;;;;;;;;5065521;28;20037;-70
2023/08/02 02:19:07;;;;;;;11.88;5.90;;;;;;;;;;5050210;28;20499;-70
2023/08/02 02:21:32;;;;;;;14.50;8.03;;;;;;;;;;5054579;28;20037;-70
2023/08/02 02:23:57;;;;;;;21.13;7.03;;;;;;;;;;5071060;28;20031;-70
2023/08/02 02:26:23;;;;;;;16.95;6.18;;;;;;;;;;5069304;28;20060;-70
2023/08/02 02:28:48;;;;;;;15.27;5.57;;;;;;;;;;5070648;28;20016;-70
2023/08/02 02:31:13;;;;;;;11.55;7.20;;;;;;;;;;5069456;28;20028;-70
2023/08/02 02:33:38;;;;;;;20.43;6.87;;;;;;;;;;5070700;28;20528;-70
2023/08/02 02:36:04;;;;;;;13.57;7.73;;;;;;;;;;5069203;28;20055;-71
2023/08/02 02:38:31;;;;;;;11.82;6.47;;;;;;;;;;5070765;28;20016;-70
2023/08/02 02:40:56;;;;;;;9.95;5.82;;;;;;;;;;5069527;28;20019;-70
2023/08/02 02:43:21;;;;;;;12.70;6.88;;;;;;;;;;5070039;28;20416;-70
2023/08/02 02:45:46;;;;;;;27.15;7.38;;;;;;;;;;5069349;28;20086;-70
2023/08/02 02:48:12;;;;;;;13.13;6.37;;;;;;;;;;5070674;28;20029;-70
2023/08/02 02:50:37;;;;;;;11.40;6.18;;;;;;;;;;5061336;28;20388;-70
2023/08/02 02:53:02;;;;;;;10.37;5.63;;;;;;;;;;5047585;28;20048;-70
2023/08/02 02:55:27;;;;;;;15.50;6.50;;;;;;;;;;5066694;28;20017;-70
2023/08/02 02:57:52;;;;;;;19.75;6.57;;;;;;;;;;5068051;28;20040;-70
2023/08/02 03:00:18;;;;;;;11.18;6.15;;;;;;;;;;5070553;28;20016;-70
2023/08/02 03:02:43;;;;;;;12.50;6.07;;;;;;;;;;5069226;28;20059;-70
2023/08/02 03:05:08;;;;;;;8.98;5.03;;;;;;;;;;5055282;28;20515;-70
2023/08/02 03:07:33;;;;;;;7.82;5.38;;;;;;;;;;5069154;28;20048;-70
2023/08/02 03:09:58;;;;;;;29.27;7.32;;;;;;;;;;5075984;28;20027;-70
2023/08/02 03:12:23;;;;;;;17.10;5.93;;;;;;;;;;5073362;28;20415;-71
2023/08/02 03:14:49;;;;;;;8.80;5.40;;;;;;;;;;5077073;28;20027;-70
2023/08/02 03:17:14;;;;;;;9.63;5.50;;;;;;;;;;5075032;28;20443;-71
2023/08/02 03:19:39;;;;;;;12.10;6.50;;;;;;;;;;5076759;28;20387;-71
2023/08/02 03:22:04;;;;;;;11.00;5.30;;;;;;;;;;5074186;28;20127;-72
2023/08/02 03:24:30;;;;;;;17.85;6.53;;;;;;;;;;5076560;28;20017;-69
2023/08/02 03:26:55;;;;;;;9.03;5.47;;;;;;;;;;5075228;28;20029;-70
2023/08/02 03:29:20;;;;;;;7.47;5.10;;;;;;;;;;5076984;28;20415;-70
2023/08/02 03:31:45;;;;;;;7.73;4.73;;;;;;;;;;5068091;28;20037;-70
2023/08/02 03:34:10;;;;;;;13.10;5.40;;;;;;;;;;5069404;28;20028;-71
2023/08/02 03:36:36;;;;;;;10.47;5.50;;;;;;;;;;5062359;28;20463;-70
2023/08/02 03:39:01;;;;;;;9.25;4.68;;;;;;;;;;5076649;28;20048;-70
2023/08/02 03:41:26;;;;;;;10.88;5.55;;;;;;;;;;5075170;28;20052;-70
2023/08/02 03:43:52;;;;;;;8.47;4.50;;;;;;;;;;5076807;28;20016;-69
2023/08/02 03:46:17;;;;;;;12.15;6.28;;;;;;;;;;5074973;28;20120;-69
2023/08/02 03:48:42;;;;;;;10.90;5.50;;;;;;;;;;5075443;28;20024;-69
2023/08/02 03:51:07;;;;;;;10.30;4.37;;;;;;;;;;5075311;28;20035;-69
2023/08/02 03:53:32;;;;;;;13.80;5.57;;;;;;;;;;5076489;28;20968;-69
2023/08/02 03:55:57;;;;;;;10.50;5.10;;;;;;;;;;5075083;28;20027;-69
2023/08/02 03:58:23;;;;;;;11.43;4.87;;;;;;;;;;5056742;28;20463;-69
2023/08/02 04:00:48;;;;;;;10.00;4.50;;;;;;;;;;5054106;28;21107;-69
2023/08/02 04:03:13;;;;;;;17.40;5.77;;;;;;;;;;5057168;28;20009;-69
2023/08/02 04:05:38;;;;;;;23.15;7.22;;;;;;;;;;5072256;28;20432;-69
2023/08/02 04:08:03;;;;;;;9.02;5.65;;;;;;;;;;5055355;28;20123;-70
2023/08/02 04:10:29;;;;;;;13.05;6.15;;;;;;;;;;5056654;28;20096;-70
2023/08/02 04:12:54;;;;;;;8.63;6.80;;;;;;;;;;5054837;28;20648;-70
2023/08/02 04:15:19;;;;;;;8.38;5.10;;;;;;;;;;5060914;28;20060;-71
2023/08/02 04:17:44;;;;;;;8.77;3.83;;;;;;;;;;5065346;28;20045;-71
2023/08/02 04:20:10;;;;;;;16.80;5.53;;;;;;;;;;5053003;28;20113;-69
2023/08/02 04:22:35;;;;;;;10.25;5.28;;;;;;;;;;5051546;28;20044;-69
2023/08/02 04:25:01;;;;;;;12.75;4.43;;;;;;;;;;5068465;28;20020;-69
2023/08/02 04:27:26;;;;;;;11.37;5.57;;;;;;;;;;5067055;28;20040;-70
2023/08/02 04:29:51;;;;;;;18.57;6.70;;;;;;;;;;5073367;28;20418;-70
2023/08/02 04:32:16;;;;;;;8.50;5.22;;;;;;;;;;5071349;28;20032;-70
2023/08/02 04:34:41;;;;;;;21.90;6.77;;;;;;;;;;5072749;28;20024;-70
2023/08/02 04:37:06;;;;;;;12.37;5.77;;;;;;;;;;5071374;28;20511;-70
2023/08/02 04:39:32;;;;;;;8.77;4.53;;;;;;;;;;5073242;28;20017;-69
2023/08/02 04:42:03;;;;;;;9.63;5.53;;;;;;;;;;5069987;28;20029;-69
2023/08/02 04:44:28;;;;;;;13.02;5.05;;;;;;;;;;5072611;28;21034;-69
2023/08/02 04:46:53;;;;;;;13.02;5.45;;;;;;;;;;5071250;28;20048;-69
2023/08/02 04:49:19;;;;;;;12.83;6.20;;;;;;;;;;5071126;28;20021;-69
2023/08/02 04:51:44;;;;;;;12.40;6.10;;;;;;;;;;5051677;28;20073;-69
2023/08/02 04:54:09;;;;;;;6.57;5.32;;;;;;;;;;5057378;28;20395;-70
2023/08/02 04:56:34;;;;;;;9.10;4.63;;;;;;;;;;5070950;28;20045;-70
2023/08/02 04:58:59;;;;;;;9.38;4.90;;;;;;;;;;5072762;28;20016;-69
2023/08/02 05:01:25;;;;;;;16.55;6.25;;;;;;;;;;5067604;28;20127;-72
2023/08/02 05:03:50;;;;;;;10.30;5.30;;;;;;;;;;5062107;28;20009;-69
2023/08/02 05:06:15;;;;;;;10.20;5.33;;;;;;;;;;5055093;28;20431;-69
2023/08/02 05:08:40;;;;;;;9.10;4.63;;;;;;;;;;5069496;28;20538;-69
2023/08/02 05:11:06;;;;;;;7.10;4.65;;;;;;;;;;5052818;28;20449;-69
2023/08/02 05:13:31;;;;;;;8.88;3.70;;;;;;;;;;5072327;28;20086;-69
2023/08/02 05:15:56;;;;;;;14.43;4.68;;;;;;;;;;5069872;28;20035;-70
2023/08/02 05:18:22;;;;;;;10.80;5.50;;;;;;;;;;5071410;28;20021;-71
2023/08/02 05:20:47;;;;;;;10.10;4.57;;;;;;;;;;5069517;28;20821;-70
2023/08/02 05:23:12;;;;;;;10.82;4.00;;;;;;;;;;5071893;28;20793;-72
2023/08/02 05:25:38;;;;;;;13.87;3.30;;;;;;;;;;5071223;28;20025;-72
2023/08/02 05:28:04;;;;;;;6.47;3.20;;;;;;;;;;5070409;28;20411;-72
2023/08/02 05:30:33;;;;;;;8.05;3.38;;;;;;;;;;5071072;28;20024;-71
2023/08/02 05:32:58;;;;;;;10.70;3.88;;;;;;;;;;5069516;28;20035;-71
2023/08/02 05:35:25;;;;;;;6.83;3.90;;;;;;;;;;5071359;28;20388;-71
2023/08/02 05:37:50;;;;;;;8.73;2.80;;;;;;;;;;5070533;28;20469;-71
2023/08/02 05:40:16;;;;;;;5.50;3.38;;;;;;;;;;5069490;28;20112;-71
2023/08/02 05:42:41;;;;;;;6.30;4.63;;;;;;;;;;5070166;28;20029;-72
2023/08/02 05:45:06;;;;;;;4.30;3.75;;;;;;;;;;5070248;28;20508;-72
2023/08/02 05:47:32;;;;;;;5.85;2.65;;;;;;;;;;5069620;28;20407;-71
2023/08/02 05:49:57;;;;;;;10.15;3.92;;;;;;;;;;5071244;28;20491;-72
2023/08/02 05:52:22;;;;;;;15.63;3.83;;;;;;;;;;5070030;28;20039;-72
2023/08/02 05:54:48;;;;;;;4.47;3.63;;;;;;;;;;5070976;28;20499;-72
2023/08/02 05:57:13;;;;;;;12.27;4.17;;;;;;;;;;5068572;28;20365;-72
2023/08/02 05:59:38;;;;;;;9.20;3.53;;;;;;;;;;5069816;28;20493;-72
2023/08/02 06:02:04;;;;;;;8.82;4.07;;;;;;;;;;5068476;28;20024;-71
2023/08/02 06:04:29;;;;;;;6.90;3.45;;;;;;;;;;5071069;28;20482;-72
2023/08/02 06:06:54;;;;;;;5.95;3.60;;;;;;;;;;5069764;28;20036;-71
2023/08/02 06:09:19;;;;;;;7.27;4.13;;;;;;;;;;5066981;28;20107;-71
2023/08/02 06:11:45;;;;;;;13.90;3.72;;;;;;;;;;5049503;28;20780;-73
2023/08/02 06:14:10;;;;;;;4.35;3.22;;;;;;;;;;5060742;28;20017;-74
2023/08/02 06:16:35;;;;;;;6.47;4.40;;;;;;;;;;5067542;28;20551;-69
2023/08/02 06:19:00;;;;;;;7.53;4.93;;;;;;;;;;5070480;28;20028;-70
2023/08/02 06:21:25;;;;;;;5.97;5.32;;;;;;;;;;5068810;28;20028;-72
2023/08/02 06:23:50;;;;;;;9.97;5.40;;;;;;;;;;5069126;28;20474;-72
2023/08/02 06:26:18;;;;;;;14.60;6.83;;;;;;;;;;5068492;28;20150;-71
2023/08/02 06:28:43;;;;;;;13.50;5.57;;;;;;;;;;5070382;28;20486;-72
2023/08/02 06:31:08;;;;;;;16.03;7.73;;;;;;;;;;5067402;28;20133;-72
2023/08/02 06:33:33;;;;;;;8.43;5.20;;;;;;;;;;5070102;28;20020;-71
2023/08/02 06:35:58;;;;;;;7.23;5.20;;;;;;;;;;5067574;28;20470;-72
2023/08/02 06:38:23;;;;;;;10.77;6.10;;;;;;;;;;5067670;28;20048;-71
2023/08/02 06:40:49;;;;;;;7.80;5.87;;;;;;;;;;5067927;28;20020;-71
2023/08/02 06:43:14;;;;;;;13.45;5.80;;;;;;;;;;5069683;28;20017;-71
2023/08/02 06:45:44;;;;;;;12.17;5.43;;;;;;;;;;5069071;28;20033;-72
2023/08/02 06:48:09;;;;;;;11.13;7.25;;;;;;;;;;5067186;28;20450;-72
2023/08/02 06:50:37;;;;;;;9.90;4.03;;;;;;;;;;5070172;28;20028;-72
2023/08/02 06:53:02;;;;;;;21.63;6.70;;;;;;;;;;5066148;28;20035;-72
2023/08/02 06:55:28;;;;;;;6.47;4.80;;;;;;;;;;5069296;28;20017;-71
2023/08/02 06:57:53;;;;;;;15.02;7.45;;;;;;;;;;5066757;28;20065;-71
2023/08/02 07:00:18;;;;;;;10.52;5.70;;;;;;;;;;5068741;28;20050;-71
2023/08/02 07:02:43;;;;;;;13.07;5.07;;;;;;;;;;5068305;28;20487;-72
2023/08/02 07:05:08;;;;;;;9.93;5.18;;;;;;;;;;5069519;28;20484;-72
2023/08/02 07:07:33;;;;;;;10.82;6.07;;;;;;;;;;5053331;28;20488;-72
2023/08/02 07:09:59;;;;;;;9.65;6.10;;;;;;;;;;5049436;28;20025;-71
2023/08/02 07:12:24;;;;;;;9.57;6.17;;;;;;;;;;5058014;28;20109;-71
2023/08/02 07:14:49;;;;;;;9.82;6.90;;;;;;;;;;5047943;28;20388;-71
2023/08/02 07:17:14;;;;;;;13.70;5.57;;;;;;;;;;5060910;28;20094;-71
2023/08/02 07:19:39;;;;;;;10.00;6.87;;;;;;;;;;5063663;28;20029;-71
2023/08/02 07:22:04;;;;;;;8.43;6.00;;;;;;;;;;5061327;28;20056;-71
2023/08/02 07:24:30;;;;;;;9.88;5.95;;;;;;;;;;5068446;28;20376;-71
2023/08/02 07:26:55;;;;;;;17.33;6.33;;;;;;;;;;5067746;28;20036;-70
2023/08/02 07:29:20;;;;;;;9.88;6.03;;;;;;;;;;5068583;28;20379;-70
2023/08/02 07:31:45;;;;;;;13.13;7.20;;;;;;;;;;5067524;28;20044;-70
2023/08/02 07:34:10;;;;;;;9.45;6.28;;;;;;;;;;5068932;28;20019;-70
2023/08/02 07:36:35;;;;;;;11.17;7.30;;;;;;;;;;5064230;28;20451;-71
2023/08/02 07:39:00;;;;;;;10.17;6.33;;;;;;;;;;5068050;28;20021;-69
2023/08/02 07:41:27;;;;;;;12.13;5.55;;;;;;;;;;5067168;28;20066;-69
2023/08/02 07:43:52;;;;;;;17.13;7.32;;;;;;;;;;5066834;28;20494;-71
2023/08/02 07:46:21;;;;;;;12.30;6.43;;;;;;;;;;5049831;28;20040;-71
2023/08/02 07:48:46;;;;;;;13.20;8.32;;;;;;;;;;5069158;28;20443;-70
2023/08/02 07:51:11;;;;;;;10.87;7.03;;;;;;;;;;5067903;28;20434;-71
2023/08/02 07:53:36;;;;;;;11.53;6.83;;;;;;;;;;5069617;28;20028;-70
2023/08/02 07:56:02;;;;;;;8.80;5.53;;;;;;;;;;5071600;28;20092;-70
2023/08/02 07:58:27;;;;;;;11.23;6.90;;;;;;;;;;5073215;28;20024;-70
2023/08/02 08:00:52;;;;;;;6.93;5.47;;;;;;;;;;5069867;28;20108;-69
2023/08/02 08:03:17;;;;;;;11.87;6.33;;;;;;;;;;5064018;28;20009;-70
2023/08/02 08:05:47;;;;;;;8.37;5.77;;;;;;;;;;5042819;28;20075;-70
2023/08/02 08:08:12;;;;;;;7.68;6.00;;;;;;;;;;5053144;28;20040;-70
2023/08/02 08:10:37;;;;;;;11.90;6.67;;;;;;;;;;5072574;28;20021;-70
2023/08/02 08:13:02;;;;;;;9.00;7.20;;;;;;;;;;5071722;28;20123;-70
2023/08/02 08:15:27;;;;;;;11.23;5.80;;;;;;;;;;5070519;28;20016;-70
2023/08/02 08:17:53;;;;;;;10.67;6.20;;;;;;;;;;5071852;28;20037;-71
2023/08/02 08:20:18;;;;;;;8.17;6.07;;;;;;;;;;5072404;28;20536;-71
2023/08/02 08:22:43;;;;;;;7.38;5.45;;;;;;;;;;5054879;28;20044;-71
2023/08/02 08:25:08;;;;;;;11.52;5.35;;;;;;;;;;5058095;28;20041;-71
2023/08/02 08:27:35;;;;;;;7.70;6.20;;;;;;;;;;5061346;28;20036;-71
2023/08/02 08:30:00;;;;;;;5.75;5.07;;;;;;;;;;5068202;28;21012;-71
2023/08/02 08:32:27;;;;;;;9.23;5.33;;;;;;;;;;5069794;28;20054;-72
2023/08/02 08:34:52;;;;;;;10.85;5.05;;;;;;;;;;5072057;28;20070;-71
2023/08/02 08:37:17;;;;;;;10.02;6.00;;;;;;;;;;5065705;28;20052;-71
2023/08/02 08:39:42;;;;;;;5.47;4.40;;;;;;;;;;5070781;28;20487;-72
2023/08/02 08:42:08;;;;;;;7.30;5.22;;;;;;;;;;5068540;28;20056;-72
2023/08/02 08:44:37;;;;;;;8.55;6.47;;;;;;;;;;5051518;28;20028;-72
2023/08/02 08:47:03;;;;;;;6.47;4.25;;;;;;;;;;5061180;28;20403;-71
2023/08/02 08:49:29;;;;;;;12.85;6.93;;;;;;;;;;5072305;28;20543;-71
2023/08/02 08:51:57;;;;;;;5.82;4.35;;;;;;;;;;5069660;28;20128;-72
2023/08/02 08:54:24;;;;;;;16.88;5.80;;;;;;;;;;5070211;28;20025;-71
2023/08/02 08:56:49;;;;;;;9.27;5.28;;;;;;;;;;5062067;28;20041;-72
2023/08/02 08:59:15;;;;;;;5.03;4.55;;;;;;;;;;5052523;28;20032;-72
2023/08/02 09:01:40;;;;;;;6.95;6.00;;;;;;;;;;5061020;28;20475;-72
2023/08/02 09:04:05;;;;;;;4.35;3.85;;;;;;;;;;5071111;28;20027;-70
2023/08/02 09:06:31;;;;;;;5.73;5.13;;;;;;;;;;5069163;28;20056;-69
2023/08/02 09:08:56;;;;;;;8.27;4.70;;;;;;;;;;5070457;28;20074;-70
2023/08/02 09:11:22;;;;;;;3.87;3.57;;;;;;;;;;5070221;28;20055;-71
2023/08/02 09:13:47;;;;;;;5.25;4.20;;;;;;;;;;5070801;28;20031;-69
2023/08/02 09:16:13;;;;;;;3.53;3.23;;;;;;;;;;5067174;28;20039;-70
2023/08/02 09:18:43;;;;;;;3.92;3.53;;;;;;;;;;5071746;28;20483;-71
2023/08/02 09:21:09;;;;;;;3.97;3.58;;;;;;;;;;5068157;28;20044;-71
2023/08/02 09:23:34;;;;;;;4.35;3.83;;;;;;;;;;5071543;28;20016;-71
2023/08/02 09:26:29;;;;;;;6.00;3.67;;;;;;;;;;5038312;28;20013;-71
2023/08/02 09:29:05;;;;;;;3.70;3.33;;;;;;;;;;5065533;28;20047;-72
2023/08/02 09:31:32;;;;;;;4.53;2.83;;;;;;;;;;5070232;28;20056;-72
2023/08/02 09:33:57;;;;;;;4.35;3.05;;;;;;;;;;5071267;28;20535;-71
2023/08/02 09:36:23;;;;;;;3.75;3.45;;;;;;;;;;5063781;28;20141;-72
2023/08/02 09:39:01;;;;;;;5.25;3.70;;;;;;;;;;5065063;28;20017;-72
2023/08/02 09:41:27;;;;;;;4.57;3.25;;;;;;;;;;5068760;28;20029;-71
2023/08/02 09:43:52;;;;;;;3.28;2.70;;;;;;;;;;5067532;28;20388;-72
2023/08/02 09:46:25;;;;;;;2.80;2.38;;;;;;;;;;5056610;28;20043;-72
2023/08/02 09:48:51;;;;;;;4.28;3.05;;;;;;;;;;5051234;28;20096;-71
2023/08/02 09:51:16;;;;;;;4.93;3.47;;;;;;;;;;5052298;28;20119;-73
2023/08/02 09:53:41;;;;;;;3.35;2.70;;;;;;;;;;5070771;28;20028;-72
2023/08/02 09:56:06;;;;;;;3.28;3.08;;;;;;;;;;5066812;28;20046;-71
2023/08/02 09:58:35;;;;;;;3.23;2.93;;;;;;;;;;5049928;28;20074;-72
2023/08/02 10:01:01;;;;;;;3.47;3.17;;;;;;;;;;5063474;28;20443;-69
2023/08/02 10:03:27;;;;;;;3.83;3.53;;;;;;;;;;5071074;28;20032;-72
2023/08/02 10:05:53;;;;;;;3.47;2.60;;;;;;;;;;5067191;28;20020;-73
2023/08/02 10:08:18;;;;;;;3.15;2.85;;;;;;;;;;5070131;28;20013;-73
2023/08/02 10:10:45;;;;;;;2.95;2.75;;;;;;;;;;5070926;28;20600;-73
2023/08/02 10:13:16;;;;;;;4.63;2.72;;;;;;;;;;5051713;28;20565;-74
2023/08/02 10:15:42;;;;;;;2.45;2.28;;;;;;;;;;5050973;28;20104;-72
2023/08/02 10:18:08;;;;;;;3.10;2.90;;;;;;;;;;5048912;28;20507;-72
2023/08/02 10:20:33;;;;;;;8.45;4.45;;;;;;;;;;5053641;28;20024;-71
2023/08/02 10:23:01;;;;;;;3.25;2.95;;;;;;;;;;5066873;28;20492;-71
2023/08/02 10:25:27;;;;;;;2.53;2.33;;;;;;;;;;5060782;28;20017;-72
2023/08/02 10:27:52;;;;;;;2.83;2.70;;;;;;;;;;5065077;28;20124;-70
2023/08/02 10:30:17;;;;;;;4.20;3.60;;;;;;;;;;5070063;28;20413;-71
2023/08/02 10:32:42;;;;;;;4.57;3.75;;;;;;;;;;5069111;28;20422;-70
2023/08/02 10:35:08;;;;;;;5.60;3.72;;;;;;;;;;5068602;28;20506;-71
2023/08/02 10:37:50;;;;;;;6.37;4.10;;;;;;;;;;5066171;28;20123;-72
2023/08/02 10:40:15;;;;;;;5.18;4.78;;;;;;;;;;5069675;28;20462;-70
2023/08/02 10:43:00;;;;;;;3.97;3.67;;;;;;;;;;5052443;28;20052;-71
2023/08/02 10:45:25;;;;;;;14.65;5.13;;;;;;;;;;5047971;28;20718;-69
2023/08/02 10:47:51;;;;;;;3.83;3.40;;;;;;;;;;5048665;28;20052;-69
2023/08/02 10:50:34;;;;;;;3.87;3.53;;;;;;;;;;5048899;28;20021;-69
2023/08/02 10:53:06;;;;;;;4.95;2.85;;;;;;;;;;5048833;28;20044;-70
2023/08/02 10:55:31;;;;;;;3.42;3.13;;;;;;;;;;5050207;28;20024;-69
2023/08/02 10:57:56;;;;;;;3.40;3.20;;;;;;;;;;5047567;28;20033;-69
2023/08/02 11:00:26;;;;;;;2.70;2.45;;;;;;;;;;5049973;28;20472;-69
2023/08/02 11:02:51;;;;;;;3.58;2.75;;;;;;;;;;5048481;28;20144;-69
2023/08/02 11:05:35;;;;;;;3.83;3.08;;;;;;;;;;5048404;28;20096;-69
2023/08/02 11:08:00;;;;;;;3.40;2.55;;;;;;;;;;5048111;28;20029;-69
2023/08/02 11:10:26;;;;;;;7.90;3.73;;;;;;;;;;5049987;28;20025;-69
2023/08/02 11:12:51;;;;;;;12.13;3.50;;;;;;;;;;5046891;28;20439;-68
2023/08/02 11:15:17;;;;;;;2.40;2.20;;;;;;;;;;5048155;28;20017;-69
2023/08/02 11:17:42;;;;;;;2.33;1.98;;;;;;;;;;5062776;28;20628;-69
2023/08/02 11:20:07;;;;;;;2.70;1.90;;;;;;;;;;5068011;28;20024;-68
2023/08/02 11:22:36;;;;;;;3.00;2.45;;;;;;;;;;5067223;28;20029;-69
2023/08/02 11:25:03;;;;;;;4.32;2.58;;;;;;;;;;5069790;28;20426;-68
2023/08/02 11:27:28;;;;;;;3.25;2.63;;;;;;;;;;5067517;28;20025;-68
2023/08/02 11:29:57;;;;;;;4.13;3.03;;;;;;;;;;5073830;28;20050;-69
2023/08/02 11:32:23;;;;;;;2.80;2.60;;;;;;;;;;5072496;28;20047;-68
2023/08/02 11:34:48;;;;;;;2.67;2.47;;;;;;;;;;5072254;28;20021;-69
2023/08/02 11:37:15;;;;;;;3.67;2.03;;;;;;;;;;5072013;28;20127;-69
2023/08/02 11:39:49;;;;;;;3.92;2.63;;;;;;;;;;5073814;28;20024;-69
2023/08/02 11:42:14;;;;;;;5.13;3.00;;;;;;;;;;5070595;28;20025;-69
2023/08/02 11:44:42;;;;;;;2.20;2.10;;;;;;;;;;5060849;28;20017;-69
2023/08/02 11:47:08;;;;;;;2.00;1.90;;;;;;;;;;5055201;28;20029;-68
2023/08/02 11:49:33;;;;;;;2.67;2.28;;;;;;;;;;5056114;28;20012;-68
2023/08/02 11:52:01;;;;;;;3.10;2.10;;;;;;;;;;5066781;28;20040;-69
2023/08/02 11:54:26;;;;;;;2.42;2.22;;;;;;;;;;5071893;28;20751;-69
2023/08/02 11:56:52;;;;;;;4.07;3.13;;;;;;;;;;5065713;28;20043;-69
2023/08/02 11:59:17;;;;;;;2.80;2.60;;;;;;;;;;5060384;28;20643;-68
2023/08/02 12:01:42;;;;;;;2.75;2.55;;;;;;;;;;5060223;28;20447;-69
2023/08/02 12:04:08;;;;;;;3.78;2.95;;;;;;;;;;5072243;28;20039;-69
2023/08/02 12:06:53;;;;;;;3.17;2.80;;;;;;;;;;5046388;28;20037;-69
2023/08/02 12:09:19;;;;;;;2.75;2.55;;;;;;;;;;5065597;28;20027;-69
2023/08/02 12:11:44;;;;;;;2.60;2.40;;;;;;;;;;5066681;28;20044;-69
2023/08/02 12:14:09;;;;;;;2.50;2.40;;;;;;;;;;5068855;28;20024;-68
2023/08/02 12:16:39;;;;;;;7.67;2.30;;;;;;;;;;5070816;28;20391;-69
2023/08/02 12:19:04;;;;;;;2.70;2.50;;;;;;;;;;5064731;28;20451;-69
2023/08/02 12:21:29;;;;;;;2.88;2.67;;;;;;;;;;5067575;28;20036;-69
2023/08/02 12:23:54;;;;;;;6.15;2.83;;;;;;;;;;5060665;28;20044;-69
2023/08/02 12:26:30;;;;;;;4.00;2.97;;;;;;;;;;5051942;28;20040;-69
2023/08/02 12:28:55;;;;;;;3.53;2.92;;;;;;;;;;5053098;28;20028;-68
2023/08/02 12:31:20;;;;;;;2.80;2.58;;;;;;;;;;5051015;28;20044;-68
2023/08/02 12:33:45;;;;;;;2.47;2.27;;;;;;;;;;5054423;28;20017;-68
2023/08/02 12:36:11;;;;;;;3.35;3.08;;;;;;;;;;5050142;28;20463;-69
2023/08/02 12:38:36;;;;;;;7.23;4.20;;;;;;;;;;5051879;28;20028;-72
2023/08/02 12:41:03;;;;;;;6.28;3.45;;;;;;;;;;5052882;28;20435;-65
2023/08/02 12:43:28;;;;;;;7.85;4.32;;;;;;;;;;5071929;28;20063;-65
2023/08/02 12:45:53;;;;;;;4.05;3.65;;;;;;;;;;5070426;28;20016;-72
2023/08/02 12:48:19;;;;;;;6.28;4.93;;;;;;;;;;5070575;28;20380;-73
2023/08/02 12:50:45;;;;;;;4.68;4.28;;;;;;;;;;5071812;28;20100;-72
2023/08/02 12:53:10;;;;;;;3.58;3.28;;;;;;;;;;5070865;28;20079;-73
2023/08/02 12:55:35;;;;;;;3.17;2.97;;;;;;;;;;5071193;28;20013;-73
2023/08/02 12:58:00;;;;;;;4.88;3.47;;;;;;;;;;5070707;28;21001;-73
2023/08/02 13:00:26;;;;;;;4.25;3.85;;;;;;;;;;5071111;28;20528;-73
2023/08/02 13:02:51;;;;;;;5.80;3.97;;;;;;;;;;5058269;28;20024;-67
2023/08/02 13:05:16;;;;;;;7.88;4.18;;;;;;;;;;5067502;28;20017;-67
2023/08/02 13:07:41;;;;;;;5.50;4.13;;;;;;;;;;5047907;28;20400;-67
2023/08/02 13:10:07;;;;;;;15.98;5.07;;;;;;;;;;5054360;28;20202;-67
2023/08/02 13:12:35;;;;;;;19.27;5.03;;;;;;;;;;5049969;28;20519;-67
2023/08/02 13:15:00;;;;;;;4.90;4.40;;;;;;;;;;5054273;28;20031;-68
2023/08/02 13:17:25;;;;;;;5.00;4.57;;;;;;;;;;5051615;28;20041;-68
2023/08/02 13:19:50;;;;;;;11.53;5.13;;;;;;;;;;5063489;28;20028;-66
2023/08/02 13:22:15;;;;;;;5.50;4.90;;;;;;;;;;5065462;28;20447;-66
2023/08/02 13:24:40;;;;;;;5.00;4.60;;;;;;;;;;5070720;28;20052;-67
2023/08/02 13:27:06;;;;;;;4.10;3.70;;;;;;;;;;5069387;28;20526;-66
2023/08/02 13:29:31;;;;;;;3.33;3.13;;;;;;;;;;5070532;28;20054;-65
2023/08/02 13:31:56;;;;;;;5.40;3.20;;;;;;;;;;5066716;28;20045;-67
2023/08/02 13:34:21;;;;;;;3.00;2.80;;;;;;;;;;5050598;28;20047;-67
2023/08/02 13:36:49;;;;;;;3.27;3.07;;;;;;;;;;5059795;28;22146;-66
2023/08/02 13:39:14;;;;;;;3.22;3.03;;;;;;;;;;5071434;28;20111;-66
2023/08/02 13:41:39;;;;;;;3.33;2.47;;;;;;;;;;5069491;28;20111;-67
2023/08/02 13:44:04;;;;;;;2.10;1.90;;;;;;;;;;5065206;28;20017;-67
2023/08/02 13:46:29;;;;;;;3.53;2.13;;;;;;;;;;5050028;28;20067;-66
2023/08/02 13:48:55;;;;;;;2.75;2.55;;;;;;;;;;5051362;28;20445;-67
2023/08/02 13:51:20;;;;;;;10.23;2.00;;;;;;;;;;5069257;28;20036;-67
2023/08/02 13:53:45;;;;;;;2.10;1.90;;;;;;;;;;5069206;28;20017;-65
2023/08/02 13:56:10;;;;;;;2.22;2.03;;;;;;;;;;5049583;28;20033;-67
2023/08/02 13:58:35;;;;;;;2.78;2.25;;;;;;;;;;5051379;28;20020;-66
2023/08/02 14:01:00;;;;;;;3.97;1.83;;;;;;;;;;5049139;28;20024;-70
2023/08/02 14:03:26;;;;;;;3.97;1.53;;;;;;;;;;5050583;28;20132;-72
2023/08/02 14:05:51;;;;;;;4.83;2.00;;;;;;;;;;5044829;28;20055;-71
2023/08/02 14:08:16;;;;;;;6.20;2.63;;;;;;;;;;5067296;28;20446;-70
2023/08/02 14:10:43;;;;;;;1.55;1.45;;;;;;;;;;5070875;28;20096;-69
2023/08/02 14:13:08;;;;;;;3.58;1.55;;;;;;;;;;5069459;28;20082;-71
2023/08/02 14:15:33;;;;;;;2.55;1.83;;;;;;;;;;5070226;28;20017;-71
2023/08/02 14:17:58;;;;;;;4.30;1.38;;;;;;;;;;5067306;28;20044;-69
2023/08/02 14:20:24;;;;;;;5.30;1.37;;;;;;;;;;5061466;28;20019;-69
2023/08/02 14:22:49;;;;;;;2.95;1.90;;;;;;;;;;5060957;28;20118;-69
2023/08/02 14:25:14;;;;;;;3.83;1.73;;;;;;;;;;5060350;28;20021;-69
2023/08/02 14:27:39;;;;;;;6.93;2.37;;;;;;;;;;5061220;28;20108;-69
2023/08/02 14:30:05;;;;;;;4.57;1.75;;;;;;;;;;5069808;28;20502;-68